Time;durP1;ratioP1;P1;durP2;ratioP2;P2;SDS_P1;SDS_P2;PMS_P1;PMS_P2;Temp;Humidity;BMP_temperature;BMP_pressure;BME280_temperature;BME280_humidity;BME280_pressure;Samples;Min_cycle;Max_cycle;Signal;HPM_P1;HPM_P2
2023/06/07 00:00:14;;;;;;;;;;;;;;;14.91;75.40;102039.91;5016949;28;20009;-57
2023/06/07 00:02:40;;;;;;;;;;;;;;;14.88;76.93;102041.53;5016205;28;20380;-56
2023/06/07 00:05:06;;;;;;;;;;;;;;;14.89;75.79;102048.47;5015040;28;19921;-57
2023/06/07 00:07:32;;;;;;;;;;;;;;;14.83;77.26;102038.81;5018698;28;19921;-57
2023/06/07 00:09:58;;;;;;;;;;;;;;;14.84;75.98;102055.22;5016244;28;19925;-57
2023/06/07 00:12:23;;;;;;;;;;;;;;;14.81;76.27;102053.44;5019154;28;19922;-57
2023/06/07 00:14:48;;;;;;;;;;;;;;;14.80;77.21;102046.47;5016091;28;19921;-57
2023/06/07 00:17:15;;;;;;;;;;;;;;;14.77;75.60;102041.22;5013901;28;19913;-58
2023/06/07 00:19:40;;;;;;;;;;;;;;;14.72;77.09;102047.97;5015438;28;20016;-57
2023/06/07 00:22:08;;;;;;;;;;;;;;;14.71;75.26;102044.50;5012110;28;20299;-57
2023/06/07 00:24:33;;;;;;;;;;;;;;;14.71;76.58;102046.22;5017356;28;19921;-57
2023/06/07 00:26:58;;;;;;;;;;;;;;;14.68;77.10;102046.09;5023862;28;20292;-57
2023/06/07 00:29:24;;;;;;;;;;;;;;;14.65;77.92;102048.63;5023444;28;19917;-57
2023/06/07 00:31:50;;;;;;;;;;;;;;;14.62;76.46;102052.00;5025188;28;19917;-57
2023/06/07 00:34:15;;;;;;;;;;;;;;;14.58;76.84;102044.97;5030533;28;20277;-58
2023/06/07 00:36:41;;;;;;;;;;;;;;;14.57;77.96;102034.56;5029350;28;20395;-56
2023/06/07 00:39:06;;;;;;;;;;;;;;;14.59;77.41;102038.09;5028138;28;19954;-56
2023/06/07 00:41:31;;;;;;;;;;;;;;;14.54;77.68;102031.88;5020410;28;19921;-57
2023/06/07 00:43:56;;;;;;;;;;;;;;;14.53;77.43;102048.25;5018552;28;20387;-56
2023/06/07 00:46:22;;;;;;;;;;;;;;;14.50;77.29;102051.63;5016417;28;20383;-57
2023/06/07 00:48:51;;;;;;;;;;;;;;;14.46;78.81;102041.97;5017089;28;19917;-58
2023/06/07 00:51:17;;;;;;;;;;;;;;;14.42;78.92;102032.34;5013939;28;19981;-58
2023/06/07 00:53:44;;;;;;;;;;;;;;;14.43;78.16;102044.44;5015419;28;19914;-57
2023/06/07 00:56:10;;;;;;;;;;;;;;;14.43;78.86;102049.63;5014085;28;19914;-55
2023/06/07 00:58:35;;;;;;;;;;;;;;;14.35;78.25;102040.75;5025153;28;20310;-56
2023/06/07 01:01:01;;;;;;;;;;;;;;;14.31;77.86;102037.19;5023302;28;19964;-57
2023/06/07 01:03:27;;;;;;;;;;;;;;;14.30;79.08;102032.84;5021393;28;19936;-57
2023/06/07 01:05:52;;;;;;;;;;;;;;;14.27;79.32;102037.94;5022600;28;19927;-57
2023/06/07 01:08:20;;;;;;;;;;;;;;;14.22;80.00;102040.38;5022539;28;20012;-56
2023/06/07 01:10:45;;;;;;;;;;;;;;;14.19;80.10;102044.56;5021888;28;20015;-57
2023/06/07 01:13:11;;;;;;;;;;;;;;;14.13;79.32;102034.88;5021457;28;20348;-57
2023/06/07 01:15:37;;;;;;;;;;;;;;;14.13;78.43;102044.34;5018972;28;19917;-59
2023/06/07 01:18:04;;;;;;;;;;;;;;;14.11;79.07;102044.31;5021010;28;19923;-56
2023/06/07 01:20:30;;;;;;;;;;;;;;;14.10;79.72;102037.41;5016771;28;19929;-57
2023/06/07 01:22:57;;;;;;;;;;;;;;;14.10;79.92;102039.09;5017597;28;20474;-57
2023/06/07 01:25:23;;;;;;;;;;;;;;;14.04;78.89;102033.72;5016909;28;19914;-57
2023/06/07 01:27:52;;;;;;;;;;;;;;;13.99;80.62;102038.75;5021802;28;20048;-46
2023/06/07 01:30:18;;;;;;;;;;;;;;;13.94;79.89;102028.25;5022149;28;20012;-45
2023/06/07 01:32:44;;;;;;;;;;;;;;;13.89;80.75;102032.41;5019645;28;19947;-44
2023/06/07 01:35:10;;;;;;;;;;;;;;;13.84;81.70;102033.97;5022409;28;19917;-45
2023/06/07 01:37:36;;;;;;;;;;;;;;;13.84;80.60;102025.34;5019587;28;19917;-44
2023/06/07 01:40:03;;;;;;;;;;;;;;;13.83;81.54;102023.53;5025814;28;20026;-44
2023/06/07 01:42:29;;;;;;;;;;;;;;;13.81;80.46;102030.38;5018218;28;19921;-44
2023/06/07 01:44:56;;;;;;;;;;;;;;;13.78;82.58;102032.88;5019888;28;19913;-43
2023/06/07 01:47:21;;;;;;;;;;;;;;;13.73;81.76;102032.72;5018907;28;19920;-44
2023/06/07 01:49:46;;;;;;;;;;;;;;;13.72;81.24;102030.97;5019973;28;19921;-44
2023/06/07 01:52:11;;;;;;;;;;;;;;;13.66;80.29;102031.63;5019439;28;19925;-44
2023/06/07 01:54:37;;;;;;;;;;;;;;;13.62;81.69;102023.72;5020673;28;19927;-44
2023/06/07 01:57:04;;;;;;;;;;;;;;;13.63;82.03;102025.47;5020856;28;20334;-44
2023/06/07 01:59:36;;;;;;;;;;;;;;;13.61;82.93;102025.44;5014685;28;19913;-45
2023/06/07 02:02:17;;;;;;;;;;;;;;;13.59;82.02;102024.50;5014975;28;19961;-44
2023/06/07 02:04:45;;;;;;;;;;;;;;;13.54;81.88;102020.00;5021134;28;19924;-43
2023/06/07 02:07:15;;;;;;;;;;;;;;;13.51;82.48;102017.31;5024775;28;19913;-44
2023/06/07 02:09:41;;;;;;;;;;;;;;;13.47;82.43;102018.00;5022557;28;19917;-43
2023/06/07 02:12:08;;;;;;;;;;;;;;;13.45;82.19;102022.25;5022165;28;19925;-44
2023/06/07 02:14:36;;;;;;;;;;;;;;;13.39;82.18;102021.22;5023975;28;20446;-45
2023/06/07 02:17:01;;;;;;;;;;;;;;;13.36;83.84;102012.50;5018989;28;19918;-46
2023/06/07 02:19:26;;;;;;;;;;;;;;;13.34;82.83;102021.88;5023535;28;19921;-47
2023/06/07 02:21:52;;;;;;;;;;;;;;;13.32;80.86;102019.25;5018087;28;19953;-44
2023/06/07 02:24:17;;;;;;;;;;;;;;;13.29;82.52;102024.31;5020636;28;19925;-44
2023/06/07 02:26:42;;;;;;;;;;;;;;;13.24;84.23;102019.81;5020381;28;19928;-43
2023/06/07 02:29:08;;;;;;;;;;;;;;;13.20;83.37;102028.22;5015567;28;19913;-44
2023/06/07 02:31:34;;;;;;;;;;;;;;;13.14;84.49;102027.19;5015271;28;19928;-43
2023/06/07 02:33:59;;;;;;;;;;;;;;;13.11;85.09;102021.94;5014223;28;20000;-45
2023/06/07 02:36:25;;;;;;;;;;;;;;;13.10;85.05;102022.75;5016602;28;19917;-44
2023/06/07 02:38:51;;;;;;;;;;;;;;;13.07;84.36;102022.63;5018946;28;20381;-45
2023/06/07 02:41:16;;;;;;;;;;;;;;;13.01;86.10;102019.81;5023510;28;19917;-44
2023/06/07 02:43:42;;;;;;;;;;;;;;;13.00;82.95;102019.78;5025476;28;19928;-44
2023/06/07 02:46:07;;;;;;;;;;;;;;;12.98;85.95;102019.69;5024989;28;20035;-44
2023/06/07 02:48:32;;;;;;;;;;;;;;;12.92;84.67;102022.06;5023167;28;19917;-43
2023/06/07 02:50:58;;;;;;;;;;;;;;;12.89;86.33;102021.94;5023918;28;19921;-45
2023/06/07 02:53:24;;;;;;;;;;;;;;;12.88;86.68;102036.56;5019952;28;19917;-44
2023/06/07 02:55:49;;;;;;;;;;;;;;;12.85;88.09;102020.94;5014666;28;20475;-47
2023/06/07 02:58:15;;;;;;;;;;;;;;;12.82;85.93;102019.97;5013850;28;19924;-47
2023/06/07 03:00:46;;;;;;;;;;;;;;;12.79;86.17;102025.88;5013164;28;19922;-44
2023/06/07 03:03:11;;;;;;;;;;;;;;;12.78;86.76;102026.72;5008123;28;20331;-44
2023/06/07 03:05:37;;;;;;;;;;;;;;;12.77;88.48;102022.38;5013754;28;19921;-45
2023/06/07 03:08:02;;;;;;;;;;;;;;;12.75;86.52;102023.16;5017239;28;20327;-45
2023/06/07 03:10:27;;;;;;;;;;;;;;;12.73;87.23;102025.66;5019057;28;19921;-44
2023/06/07 03:12:53;;;;;;;;;;;;;;;12.71;86.11;102026.44;5018072;28;19922;-43
2023/06/07 03:15:18;;;;;;;;;;;;;;;12.68;86.04;102024.63;5014481;28;19922;-44
2023/06/07 03:17:44;;;;;;;;;;;;;;;12.69;86.58;102028.97;5019154;28;19917;-51
2023/06/07 03:20:09;;;;;;;;;;;;;;;12.70;85.72;102024.66;5020656;28;19925;-45
2023/06/07 03:22:38;;;;;;;;;;;;;;;12.68;84.62;102027.22;5015230;28;20304;-44
2023/06/07 03:25:04;;;;;;;;;;;;;;;12.69;86.90;102028.97;5020151;28;19917;-44
2023/06/07 03:27:32;;;;;;;;;;;;;;;12.66;86.35;102027.94;5014555;28;19926;-45
2023/06/07 03:29:57;;;;;;;;;;;;;;;12.66;87.60;102023.66;5013886;28;19922;-48
2023/06/07 03:32:23;;;;;;;;;;;;;;;12.65;87.53;102031.34;5011290;28;20031;-48
2023/06/07 03:34:48;;;;;;;;;;;;;;;12.64;88.15;102029.59;5011215;28;19917;-45
2023/06/07 03:37:13;;;;;;;;;;;;;;;12.64;87.23;102035.63;5010265;28;19924;-47
2023/06/07 03:39:39;;;;;;;;;;;;;;;12.66;85.38;102039.16;5015750;28;20282;-45
2023/06/07 03:42:05;;;;;;;;;;;;;;;12.60;86.05;102037.22;5013416;28;19941;-46
2023/06/07 03:44:30;;;;;;;;;;;;;;;12.57;86.69;102029.38;5022899;28;20328;-45
2023/06/07 03:46:55;;;;;;;;;;;;;;;12.57;86.25;102038.81;5020480;28;19921;-43
2023/06/07 03:49:21;;;;;;;;;;;;;;;12.57;85.18;102037.09;5015164;28;19925;-45
2023/06/07 03:51:46;;;;;;;;;;;;;;;12.57;85.13;102039.69;5015850;28;19941;-43
2023/06/07 03:54:13;;;;;;;;;;;;;;;12.60;85.09;102041.50;5014924;28;19917;-43
2023/06/07 03:56:38;;;;;;;;;;;;;;;12.57;87.48;102036.22;5013338;28;19917;-57
2023/06/07 03:59:03;;;;;;;;;;;;;;;12.55;86.97;102036.16;5014398;28;20590;-56
2023/06/07 04:01:28;;;;;;;;;;;;;;;12.54;86.29;102033.53;5015541;28;20016;-56
2023/06/07 04:03:54;;;;;;;;;;;;;;;12.54;88.42;102033.53;5019819;28;19967;-57
2023/06/07 04:06:24;;;;;;;;;;;;;;;12.48;88.14;102030.69;5021161;28;19922;-57
2023/06/07 04:08:51;;;;;;;;;;;;;;;12.47;87.01;102037.56;5017874;28;19924;-57
2023/06/07 04:11:17;;;;;;;;;;;;;;;12.48;88.63;102039.31;5015050;28;19932;-57
2023/06/07 04:13:42;;;;;;;;;;;;;;;12.50;88.05;102036.81;5021018;28;20008;-56
2023/06/07 04:16:07;;;;;;;;;;;;;;;12.48;88.79;102035.84;5017752;28;19925;-57
2023/06/07 04:18:33;;;;;;;;;;;;;;;12.42;88.28;102038.19;5013409;28;20354;-58
2023/06/07 04:20:58;;;;;;;;;;;;;;;12.43;85.57;102040.84;5015290;28;19983;-57
2023/06/07 04:23:23;;;;;;;;;;;;;;;12.46;85.98;102034.94;5024115;28;19928;-57
2023/06/07 04:25:48;;;;;;;;;;;;;;;12.47;87.33;102036.69;5022687;28;19921;-58
2023/06/07 04:28:14;;;;;;;;;;;;;;;12.51;86.33;102036.00;5023026;28;19917;-58
2023/06/07 04:30:40;;;;;;;;;;;;;;;12.51;87.14;102038.56;5016720;28;19921;-57
2023/06/07 04:33:09;;;;;;;;;;;;;;;12.49;88.10;102035.03;5023221;28;20113;-57
2023/06/07 04:35:41;;;;;;;;;;;;;;;12.49;86.97;102040.19;5020264;28;19953;-58
2023/06/07 04:38:07;;;;;;;;;;;;;;;12.47;87.93;102039.25;5016661;28;20387;-57
2023/06/07 04:40:33;;;;;;;;;;;;;;;12.45;87.87;102038.34;5014154;28;19932;-58
2023/06/07 04:43:08;;;;;;;;;;;;;;;12.50;88.21;102044.56;5017868;28;19917;-58
2023/06/07 04:45:36;;;;;;;;;;;;;;;12.53;87.95;102045.53;5018296;28;19914;-58
2023/06/07 04:48:01;;;;;;;;;;;;;;;12.54;87.01;102060.19;5025380;28;19922;-58
2023/06/07 04:50:28;;;;;;;;;;;;;;;12.54;87.05;102062.78;5025602;28;19921;-58
2023/06/07 04:53:03;;;;;;;;;;;;;;;12.52;86.52;102051.53;5026879;28;19917;-57
2023/06/07 04:55:34;;;;;;;;;;;;;;;12.49;86.33;102056.56;5025516;28;19917;-57
2023/06/07 04:57:59;;;;;;;;;;;;;;;12.51;87.81;102048.91;5018431;28;19914;-58
2023/06/07 05:00:25;;;;;;;;;;;;;;;12.54;88.18;102052.44;5021372;28;19924;-58
2023/06/07 05:02:52;;;;;;;;;;;;;;;12.59;87.35;102057.81;5017841;28;20376;-57
2023/06/07 05:05:17;;;;;;;;;;;;;;;12.57;86.75;102049.13;5023039;28;19971;-58
2023/06/07 05:07:44;;;;;;;;;;;;;;;12.59;88.78;102047.47;5019001;28;19921;-57
2023/06/07 05:10:09;;;;;;;;;;;;;;;12.66;86.39;102051.19;5025173;28;20380;-58
2023/06/07 05:12:35;;;;;;;;;;;;;;;12.68;85.96;102040.09;5019156;28;19937;-57
2023/06/07 05:15:00;;;;;;;;;;;;;;;12.84;85.36;102039.84;5019315;28;19928;-58
2023/06/07 05:17:28;;;;;;;;;;;;;;;12.84;85.59;102050.16;5014583;28;19936;-58
2023/06/07 05:19:54;;;;;;;;;;;;;;;12.91;86.21;102047.81;5014556;28;20090;-57
2023/06/07 05:22:19;;;;;;;;;;;;;;;12.99;86.30;102043.84;5013440;28;20029;-57
2023/06/07 05:24:45;;;;;;;;;;;;;;;13.10;85.28;102053.75;5026428;28;19983;-58
2023/06/07 05:27:10;;;;;;;;;;;;;;;13.11;84.62;102060.66;5022386;28;20016;-58
2023/06/07 05:29:35;;;;;;;;;;;;;;;13.10;84.93;102056.31;5019271;28;19925;-58
2023/06/07 05:32:01;;;;;;;;;;;;;;;13.17;85.39;102070.34;5019976;28;20273;-58
2023/06/07 05:34:26;;;;;;;;;;;;;;;13.16;84.21;102058.22;5016065;28;19917;-58
2023/06/07 05:36:51;;;;;;;;;;;;;;;13.11;86.02;102054.63;5018923;28;19921;-57
2023/06/07 05:39:17;;;;;;;;;;;;;;;13.16;85.07;102055.63;5015295;28;19924;-58
2023/06/07 05:41:42;;;;;;;;;;;;;;;13.21;85.09;102066.19;5018679;28;20003;-56
2023/06/07 05:44:07;;;;;;;;;;;;;;;13.29;85.50;102062.19;5015935;28;20024;-57
2023/06/07 05:46:33;;;;;;;;;;;;;;;13.39;84.61;102066.84;5018766;28;20394;-58
2023/06/07 05:48:58;;;;;;;;;;;;;;;13.41;83.88;102058.34;5016109;28;20360;-57
2023/06/07 05:51:23;;;;;;;;;;;;;;;13.44;83.52;102060.13;5025506;28;20391;-58
2023/06/07 05:53:48;;;;;;;;;;;;;;;13.45;83.16;102067.06;5026234;28;20354;-46
2023/06/07 05:56:16;;;;;;;;;;;;;;;13.45;83.76;102059.31;5024703;28;19921;-44
2023/06/07 05:58:43;;;;;;;;;;;;;;;13.53;84.35;102065.63;5024458;28;19932;-44
2023/06/07 06:01:11;;;;;;;;;;;;;;;13.63;83.46;102062.53;5023677;28;19917;-44
2023/06/07 06:03:36;;;;;;;;;;;;;;;13.71;83.08;102065.41;5021679;28;20339;-44
2023/06/07 06:06:11;;;;;;;;;;;;;;;13.77;82.77;102063.03;5024639;28;20383;-46
2023/06/07 06:08:36;;;;;;;;;;;;;;;13.86;82.30;102075.38;5018535;28;20365;-47
2023/06/07 06:11:01;;;;;;;;;;;;;;;13.91;82.26;102074.69;5018955;28;19925;-45
2023/06/07 06:13:30;;;;;;;;;;;;;;;13.97;82.13;102078.31;5019275;28;20380;-48
2023/06/07 06:15:55;;;;;;;;;;;;;;;14.00;81.35;102073.25;5018877;28;19917;-45
2023/06/07 06:18:21;;;;;;;;;;;;;;;13.85;81.70;102071.91;5018480;28;19952;-46
2023/06/07 06:20:46;;;;;;;;;;;;;;;13.87;81.47;102083.19;5015716;28;19932;-45
2023/06/07 06:23:11;;;;;;;;;;;;;;;13.89;81.18;102078.94;5014335;28;20036;-45
2023/06/07 06:25:36;;;;;;;;;;;;;;;13.97;81.06;102084.38;5017537;28;19956;-46
2023/06/07 06:28:02;;;;;;;;;;;;;;;14.05;80.80;102088.09;5018084;28;20364;-45
2023/06/07 06:30:27;;;;;;;;;;;;;;;14.19;80.89;102076.47;5011978;28;19945;-43
2023/06/07 06:32:52;;;;;;;;;;;;;;;14.37;80.40;102076.19;5011607;28;19921;-45
2023/06/07 06:35:17;;;;;;;;;;;;;;;14.64;79.52;102089.16;5018826;28;20006;-45
2023/06/07 06:37:43;;;;;;;;;;;;;;;14.94;77.96;102080.56;5015173;28;19921;-45
2023/06/07 06:40:08;;;;;;;;;;;;;;;15.08;78.47;102084.44;5016801;28;20291;-46
2023/06/07 06:42:33;;;;;;;;;;;;;;;15.19;77.25;102084.75;5013540;28;19921;-48
2023/06/07 06:44:59;;;;;;;;;;;;;;;15.14;77.24;102088.91;5014406;28;19921;-45
2023/06/07 06:47:25;;;;;;;;;;;;;;;15.10;76.97;102092.25;5014115;28;20012;-46
2023/06/07 06:49:51;;;;;;;;;;;;;;;15.15;76.88;102096.72;5015677;28;19925;-44
2023/06/07 06:52:16;;;;;;;;;;;;;;;15.19;76.18;102102.88;5014268;28;20607;-47
2023/06/07 06:54:42;;;;;;;;;;;;;;;15.16;76.04;102113.13;5021634;28;19960;-57
2023/06/07 06:57:08;;;;;;;;;;;;;;;15.13;76.14;102102.72;5025638;28;19913;-56
2023/06/07 06:59:33;;;;;;;;;;;;;;;15.05;75.63;102094.72;5022812;28;19963;-56
2023/06/07 07:01:59;;;;;;;;;;;;;;;14.91;76.43;102093.41;5023085;28;19975;-57
2023/06/07 07:04:25;;;;;;;;;;;;;;;14.83;76.62;102102.66;5021465;28;20628;-57
2023/06/07 07:06:50;;;;;;;;;;;;;;;14.88;76.84;102101.09;5024091;28;19917;-56
2023/06/07 07:09:16;;;;;;;;;;;;;;;15.01;76.22;102109.28;5016494;28;19925;-56
2023/06/07 07:11:41;;;;;;;;;;;;;;;15.01;76.07;102104.09;5015260;28;20273;-55
2023/06/07 07:14:06;;;;;;;;;;;;;;;15.09;76.27;102111.22;5015592;28;19926;-56
2023/06/07 07:16:31;;;;;;;;;;;;;;;15.26;75.98;102115.19;5017481;28;19925;-56
2023/06/07 07:18:57;;;;;;;;;;;;;;;15.35;75.11;102119.72;5013288;28;19976;-57
2023/06/07 07:21:22;;;;;;;;;;;;;;;15.36;74.87;102113.75;5016362;28;20035;-56
2023/06/07 07:23:47;;;;;;;;;;;;;;;15.43;74.90;102108.75;5011980;28;20398;-56
2023/06/07 07:26:13;;;;;;;;;;;;;;;15.49;74.61;102119.31;5019589;28;19952;-57
2023/06/07 07:28:38;;;;;;;;;;;;;;;15.47;74.71;102120.06;5015475;28;20027;-56
2023/06/07 07:31:03;;;;;;;;;;;;;;;15.48;74.43;102121.84;5010795;28;19928;-57
2023/06/07 07:33:28;;;;;;;;;;;;;;;15.54;73.91;102119.44;5021753;28;19929;-56
2023/06/07 07:35:54;;;;;;;;;;;;;;;15.54;73.55;102114.25;5014517;28;19917;-57
2023/06/07 07:38:19;;;;;;;;;;;;;;;15.52;74.01;102124.56;5018097;28;20372;-56
2023/06/07 07:40:45;;;;;;;;;;;;;;;15.58;73.55;102123.84;5012760;28;20346;-56
2023/06/07 07:43:10;;;;;;;;;;;;;;;15.59;73.30;102127.31;5014708;28;20416;-57
2023/06/07 07:45:36;;;;;;;;;;;;;;;15.54;73.50;102119.44;5010637;28;19924;-57
2023/06/07 07:48:01;;;;;;;;;;;;;;;15.57;73.78;102117.78;5016187;28;19983;-56
2023/06/07 07:50:27;;;;;;;;;;;;;;;15.65;73.40;102119.72;5015982;28;19991;-56
2023/06/07 07:52:54;;;;;;;;;;;;;;;15.82;72.86;102121.06;5016184;28;20384;-57
2023/06/07 07:55:21;;;;;;;;;;;;;;;16.07;72.38;102115.69;5015297;28;19917;-58
2023/06/07 07:57:46;;;;;;;;;;;;;;;16.25;70.91;102122.16;5018195;28;19918;-57
2023/06/07 08:00:12;;;;;;;;;;;;;;;16.39;71.11;102127.72;5018074;28;20965;-57
2023/06/07 08:02:37;;;;;;;;;;;;;;;16.58;70.63;102135.09;5018960;28;19943;-57
2023/06/07 08:05:03;;;;;;;;;;;;;;;16.66;68.83;102124.88;5014386;28;19917;-57
2023/06/07 08:07:28;;;;;;;;;;;;;;;16.74;69.93;102129.44;5019246;28;19913;-56
2023/06/07 08:09:53;;;;;;;;;;;;;;;16.74;68.79;102136.34;5012705;28;19940;-56
2023/06/07 08:12:19;;;;;;;;;;;;;;;16.76;69.29;102127.78;5013410;28;19917;-56
2023/06/07 08:14:44;;;;;;;;;;;;;;;16.93;68.74;102122.06;5020124;28;20355;-57
2023/06/07 08:17:09;;;;;;;;;;;;;;;17.21;68.25;102116.63;5015662;28;19929;-57
2023/06/07 08:19:35;;;;;;;;;;;;;;;17.49;66.50;102117.19;5015732;28;19917;-55
2023/06/07 08:22:00;;;;;;;;;;;;;;;17.80;65.15;102114.34;5008838;28;20296;-57
2023/06/07 08:24:25;;;;;;;;;;;;;;;17.87;66.66;102108.38;5013390;28;19926;-57
2023/06/07 08:26:50;;;;;;;;;;;;;;;18.12;64.32;102109.69;5014644;28;20686;-56
2023/06/07 08:29:16;;;;;;;;;;;;;;;18.23;64.54;102108.13;5012347;28;19917;-57
2023/06/07 08:31:43;;;;;;;;;;;;;;;18.41;63.52;102111.91;5014557;28;19926;-56
2023/06/07 08:34:08;;;;;;;;;;;;;;;18.67;63.46;102126.22;5009840;28;19923;-57
2023/06/07 08:36:33;;;;;;;;;;;;;;;18.78;63.81;102122.91;5010996;28;19917;-57
2023/06/07 08:38:58;;;;;;;;;;;;;;;19.05;63.06;102118.06;5011630;28;20004;-57
2023/06/07 08:41:24;;;;;;;;;;;;;;;19.36;60.81;102118.47;5015892;28;19917;-55
2023/06/07 08:43:49;;;;;;;;;;;;;;;19.64;59.55;102120.53;5017362;28;19940;-56
2023/06/07 08:46:16;;;;;;;;;;;;;;;19.65;59.54;102117.06;5015550;28;20391;-57
2023/06/07 08:48:42;;;;;;;;;;;;;;;19.79;59.75;102117.22;5020106;28;19952;-57
2023/06/07 08:51:08;;;;;;;;;;;;;;;19.81;59.69;102105.06;5020158;28;19921;-57
2023/06/07 08:53:37;;;;;;;;;;;;;;;19.97;58.83;102114.78;5027081;28;19921;-57
2023/06/07 08:56:03;;;;;;;;;;;;;;;20.01;58.34;102107.84;5019451;28;19964;-58
2023/06/07 08:58:28;;;;;;;;;;;;;;;20.17;56.72;102112.34;5012794;28;19922;-57
2023/06/07 09:00:57;;;;;;;;;;;;;;;20.28;56.24;102121.13;5014040;28;19921;-57
2023/06/07 09:03:22;;;;;;;;;;;;;;;20.07;59.35;102113.09;5019790;28;19936;-57
2023/06/07 09:05:48;;;;;;;;;;;;;;;20.14;58.71;102103.59;5024499;28;19921;-57
2023/06/07 09:08:13;;;;;;;;;;;;;;;20.25;58.28;102115.00;5018759;28;19961;-58
2023/06/07 09:10:38;;;;;;;;;;;;;;;20.36;58.27;102109.00;5026830;28;20410;-57
2023/06/07 09:13:05;;;;;;;;;;;;;;;20.54;57.86;102107.41;5016787;28;20436;-57
2023/06/07 09:15:30;;;;;;;;;;;;;;;20.60;57.92;102105.72;5025130;28;20372;-58
2023/06/07 09:17:58;;;;;;;;;;;;;;;20.66;57.89;102109.25;5021107;28;19939;-57
2023/06/07 09:20:27;;;;;;;;;;;;;;;20.55;57.65;102114.38;5018284;28;19914;-57
2023/06/07 09:23:08;;;;;;;;;;;;;;;20.52;58.55;102111.78;5018525;28;19925;-53
2023/06/07 09:25:34;;;;;;;;;;;;;;;20.45;56.37;102110.84;5018044;28;20313;-57
2023/06/07 09:28:02;;;;;;;;;;;;;;;20.45;56.98;102107.34;5020724;28;20410;-56
2023/06/07 09:30:27;;;;;;;;;;;;;;;20.34;56.79;102109.88;5013575;28;19932;-57
2023/06/07 09:32:52;;;;;;;;;;;;;;;20.32;58.16;102119.41;5014293;28;19918;-57
2023/06/07 09:35:21;;;;;;;;;;;;;;;20.28;56.83;102109.81;5014001;28;19920;-57
2023/06/07 09:37:54;;;;;;;;;;;;;;;20.22;57.73;102112.38;5012561;28;19913;-58
2023/06/07 09:40:20;;;;;;;;;;;;;;;20.17;57.96;102112.34;5017962;28;20375;-57
2023/06/07 09:42:54;;;;;;;;;;;;;;;20.08;57.38;102120.97;5017767;28;19921;-57
2023/06/07 09:45:20;;;;;;;;;;;;;;;19.99;57.90;102120.00;5022744;28;19913;-57
2023/06/07 09:47:45;;;;;;;;;;;;;;;19.68;57.28;102126.66;5017265;28;19917;-57
2023/06/07 09:50:11;;;;;;;;;;;;;;;19.42;58.44;102119.41;5020313;28;19944;-57
2023/06/07 09:52:37;;;;;;;;;;;;;;;19.26;59.23;102115.72;5022733;28;19917;-57
2023/06/07 09:55:02;;;;;;;;;;;;;;;19.26;59.19;102112.25;5021352;28;19936;-57
2023/06/07 09:57:28;;;;;;;;;;;;;;;19.26;58.86;102107.03;5017242;28;19918;-58
2023/06/07 10:00:07;;;;;;;;;;;;;;;19.34;59.00;102104.50;5021112;28;19924;-58
2023/06/07 10:02:32;;;;;;;;;;;;;;;19.47;58.63;102111.59;5019437;28;20012;-57
2023/06/07 10:04:59;;;;;;;;;;;;;;;19.51;58.92;102109.06;5013353;28;20420;-57
2023/06/07 10:07:26;;;;;;;;;;;;;;;19.59;59.34;102110.91;5016657;28;20454;-58
2023/06/07 10:09:53;;;;;;;;;;;;;;;19.65;58.58;102108.34;5021392;28;19922;-57
2023/06/07 10:12:20;;;;;;;;;;;;;;;19.69;58.41;102110.16;5020998;28;19917;-55
2023/06/07 10:14:46;;;;;;;;;;;;;;;19.83;58.22;102105.94;5017843;28;19917;-57
2023/06/07 10:17:13;;;;;;;;;;;;;;;20.06;58.19;102104.41;5016959;28;20362;-57
2023/06/07 10:19:43;;;;;;;;;;;;;;;20.12;57.56;102095.75;5022238;28;20291;-57
2023/06/07 10:22:11;;;;;;;;;;;;;;;20.06;57.36;102101.78;5015483;28;19945;-56
2023/06/07 10:24:40;;;;;;;;;;;;;;;19.95;57.34;102107.78;5018471;28;19925;-57
2023/06/07 10:27:15;;;;;;;;;;;;;;;19.76;58.64;102099.78;5015937;28;19917;-57
2023/06/07 10:29:43;;;;;;;;;;;;;;;19.94;58.20;102101.69;5015672;28;19920;-58
2023/06/07 10:32:21;;;;;;;;;;;;;;;20.00;58.40;102100.88;5013300;28;19914;-57
2023/06/07 10:34:47;;;;;;;;;;;;;;;19.91;58.52;102095.59;5015026;28;19944;-57
2023/06/07 10:37:16;;;;;;;;;;;;;;;19.94;58.36;102101.69;5013645;28;19917;-57
2023/06/07 10:39:41;;;;;;;;;;;;;;;19.98;58.76;102095.66;5012865;28;20009;-58
2023/06/07 10:42:07;;;;;;;;;;;;;;;20.08;58.36;102097.47;5020834;28;20534;-57
2023/06/07 10:44:33;;;;;;;;;;;;;;;20.24;58.77;102092.38;5021631;28;19921;-57
2023/06/07 10:47:17;;;;;;;;;;;;;;;20.38;57.68;102093.31;5018161;28;19972;-57
2023/06/07 10:49:42;;;;;;;;;;;;;;;20.36;57.56;102093.31;5019251;28;19968;-57
2023/06/07 10:52:07;;;;;;;;;;;;;;;20.39;57.94;102086.41;5019917;28;20316;-58
2023/06/07 10:54:33;;;;;;;;;;;;;;;20.48;57.86;102082.13;5014762;28;19917;-57
2023/06/07 10:56:59;;;;;;;;;;;;;;;20.54;56.45;102076.94;5016404;28;20376;-57
2023/06/07 10:59:25;;;;;;;;;;;;;;;20.48;57.42;102078.63;5015365;28;19924;-58
2023/06/07 11:01:53;;;;;;;;;;;;;;;20.44;57.67;102075.09;5018635;28;19914;-57
2023/06/07 11:04:39;;;;;;;;;;;;;;;20.57;57.18;102082.19;5018138;28;19955;-57
2023/06/07 11:07:38;;;;;;;;;;;;;;;20.63;56.90;102076.13;5015376;28;19921;-57
2023/06/07 11:10:23;;;;;;;;;;;;;;;20.77;56.65;102069.22;5016163;28;19917;-56
2023/06/07 11:12:56;;;;;;;;;;;;;;;20.91;56.46;102071.03;5017504;28;19913;-58
2023/06/07 11:15:24;;;;;;;;;;;;;;;21.12;56.68;102076.38;5016251;28;19967;-57
2023/06/07 11:17:53;;;;;;;;;;;;;;;21.22;55.73;102072.88;5013540;28;19925;-56
2023/06/07 11:20:40;;;;;;;;;;;;;;;21.22;55.68;102066.78;5015248;28;19953;-57
2023/06/07 11:23:24;;;;;;;;;;;;;;;21.31;55.74;102069.47;5012909;28;20388;-57
2023/06/07 11:25:51;;;;;;;;;;;;;;;21.36;55.09;102063.41;5022825;28;19924;-57
2023/06/07 11:28:31;;;;;;;;;;;;;;;21.33;53.64;102060.75;5017001;28;19913;-56
2023/06/07 11:30:56;;;;;;;;;;;;;;;21.30;55.08;102054.66;5014756;28;19926;-57
2023/06/07 11:33:22;;;;;;;;;;;;;;;21.26;55.00;102051.13;5023708;28;19983;-58
2023/06/07 11:35:51;;;;;;;;;;;;;;;21.32;54.25;102045.94;5018462;28;19980;-46
2023/06/07 11:38:17;;;;;;;;;;;;;;;21.40;54.71;102059.91;5015278;28;19913;-45
2023/06/07 11:40:43;;;;;;;;;;;;;;;21.46;54.08;102045.94;5012916;28;19914;-45
2023/06/07 11:43:10;;;;;;;;;;;;;;;21.61;53.31;102055.59;5017673;28;19952;-45
2023/06/07 11:45:36;;;;;;;;;;;;;;;21.77;54.54;102046.00;5010716;28;20435;-46
2023/06/07 11:48:01;;;;;;;;;;;;;;;21.95;54.85;102036.38;5010713;28;20004;-46
2023/06/07 11:50:26;;;;;;;;;;;;;;;22.12;52.44;102043.41;5010430;28;20380;-48
2023/06/07 11:52:53;;;;;;;;;;;;;;;22.06;53.39;102036.38;5013359;28;19967;-45
2023/06/07 11:55:18;;;;;;;;;;;;;;;22.03;53.32;102043.38;5019597;28;20030;-45
2023/06/07 11:57:43;;;;;;;;;;;;;;;21.94;53.30;102039.88;5015311;28;20368;-48
2023/06/07 12:00:13;;;;;;;;;;;;;;;21.85;53.19;102039.03;5017244;28;19925;-48
2023/06/07 12:02:40;;;;;;;;;;;;;;;21.94;53.25;102041.63;5017736;28;19921;-46
2023/06/07 12:05:05;;;;;;;;;;;;;;;22.05;52.81;102039.00;5013158;28;19929;-45
2023/06/07 12:07:34;;;;;;;;;;;;;;;21.99;53.16;102036.41;5011471;28;20296;-46
2023/06/07 12:10:00;;;;;;;;;;;;;;;21.94;53.19;102039.00;5011481;28;19926;-44
2023/06/07 12:12:25;;;;;;;;;;;;;;;21.99;53.95;102046.88;5011368;28;20400;-46
2023/06/07 12:14:58;;;;;;;;;;;;;;;22.20;52.32;102037.31;5013049;28;20126;-45
2023/06/07 12:17:23;;;;;;;;;;;;;;;22.38;52.22;102033.75;5015898;28;19935;-46
2023/06/07 12:19:49;;;;;;;;;;;;;;;22.58;51.15;102032.84;5014419;28;20400;-46
2023/06/07 12:22:14;;;;;;;;;;;;;;;22.74;50.71;102037.13;5014334;28;19917;-45
2023/06/07 12:24:40;;;;;;;;;;;;;;;22.99;49.62;102032.69;5022476;28;19948;-46
2023/06/07 12:27:06;;;;;;;;;;;;;;;23.04;50.37;102033.53;5021123;28;19917;-45
2023/06/07 12:29:31;;;;;;;;;;;;;;;22.94;48.28;102027.50;5016141;28;20732;-48
2023/06/07 12:31:57;;;;;;;;;;;;;;;22.86;47.85;102034.47;5024398;28;19925;-46